Time;durP1;ratioP1;P1;durP2;ratioP2;P2;SDS_P1;SDS_P2;PMS_P1;PMS_P2;Temp;Humidity;BMP_temperature;BMP_pressure;BME280_temperature;BME280_humidity;BME280_pressure;Samples;Min_cycle;Max_cycle;Signal;HPM_P1;HPM_P2
2022/12/02 00:07:35;;;;;;;15.90;9.27;;;;;;;0.82;71.37;101195.16;30871087;28;96653;-70
2022/12/02 00:22:36;;;;;;;20.33;10.38;;;;;;;0.76;71.28;101184.97;30870291;28;97325;-68
2022/12/02 00:37:36;;;;;;;19.40;11.32;;;;;;;0.78;71.42;101177.88;30869296;28;97012;-69
2022/12/02 00:52:37;;;;;;;13.95;8.85;;;;;;;0.79;71.48;101184.81;30867933;28;97245;-69
2022/12/02 01:07:37;;;;;;;16.00;10.20;;;;;;;0.72;71.17;101179.97;30866071;28;97427;-70
2022/12/02 01:22:38;;;;;;;18.27;11.43;;;;;;;0.63;71.23;101179.53;30864141;28;96735;-70
2022/12/02 01:37:38;;;;;;;20.25;12.15;;;;;;;0.60;71.70;101176.22;30863286;28;97267;-70
2022/12/02 01:52:39;;;;;;;21.27;11.18;;;;;;;0.67;71.97;101167.13;30861426;28;96625;-69
2022/12/02 02:07:41;;;;;;;20.05;12.18;;;;;;;0.61;71.62;101162.19;30859236;28;96778;-69
2022/12/02 02:22:55;;;;;;;14.57;9.73;;;;;;;0.55;72.01;101158.13;30858733;28;96580;-70
2022/12/02 02:37:55;;;;;;;14.65;7.63;;;;;;;0.45;71.86;101172.63;30858188;28;96677;-69
2022/12/02 02:52:56;;;;;;;14.70;8.88;;;;;;;0.32;72.17;101165.41;30856859;28;98645;-69
2022/12/02 03:07:57;;;;;;;15.25;8.65;;;;;;;0.37;72.29;101144.22;30855662;28;96663;-70
2022/12/02 03:22:59;;;;;;;13.43;8.52;;;;;;;0.37;72.17;101148.59;30862866;28;96948;-69
2022/12/02 03:37:59;;;;;;;14.48;8.73;;;;;;;0.39;72.06;101136.28;30874261;28;97466;-69
2022/12/02 03:53:00;;;;;;;13.75;8.38;;;;;;;0.40;72.38;101106.53;30769966;28;96774;-69
2022/12/02 04:08:01;;;;;;;15.43;9.25;;;;;;;0.33;72.18;101104.22;30748877;28;97005;-69
2022/12/02 04:23:01;;;;;;;15.85;8.13;;;;;;;0.32;72.57;101099.88;30748723;28;96744;-68
2022/12/02 04:38:02;;;;;;;14.95;8.73;;;;;;;0.31;72.64;101092.13;30746366;28;97283;-69
2022/12/02 04:53:02;;;;;;;16.70;8.90;;;;;;;0.23;72.56;101099.53;30741802;28;97039;-68
2022/12/02 05:08:03;;;;;;;16.58;8.02;;;;;;;0.24;72.80;101086.34;30739639;28;97033;-69
2022/12/02 05:23:03;;;;;;;16.00;9.43;;;;;;;0.23;72.65;101100.38;30738344;28;96669;-71
2022/12/02 05:38:03;;;;;;;20.13;9.73;;;;;;;0.25;72.49;101097.69;30737200;28;96762;-66
2022/12/02 05:53:04;;;;;;;19.90;11.55;;;;;;;0.20;72.50;101115.44;30697033;28;96843;-69
2022/12/02 06:08:12;;;;;;;17.23;10.25;;;;;;;0.20;72.74;101110.19;30672770;28;97083;-68
2022/12/02 06:23:17;;;;;;;22.30;11.45;;;;;;;0.26;72.83;101118.56;30617143;28;97267;-74
2022/12/02 06:38:28;;;;;;;17.30;8.95;;;;;;;0.22;72.61;101119.66;30761891;28;97140;-67
2022/12/02 06:53:35;;;;;;;15.35;9.52;;;;;;;0.18;72.31;101139.09;30769188;28;96826;-69
2022/12/02 07:08:35;;;;;;;17.77;10.60;;;;;;;0.14;72.22;101154.13;30743667;28;97342;-69
2022/12/02 07:23:37;;;;;;;22.15;11.90;;;;;;;0.24;72.35;101143.16;30730679;28;97447;-66
2022/12/02 07:38:37;;;;;;;24.83;11.77;;;;;;;0.29;72.30;101147.25;30748892;28;96859;-68
2022/12/02 07:53:38;;;;;;;17.70;8.90;;;;;;;0.20;72.07;101150.34;30723100;28;97432;-70
2022/12/02 08:08:38;;;;;;;23.65;11.88;;;;;;;0.09;71.98;101148.25;30730479;28;97068;-71
2022/12/02 08:23:38;;;;;;;25.85;12.20;;;;;;;0.09;71.92;101152.66;30733597;28;96927;-67
2022/12/02 08:38:39;;;;;;;20.45;10.88;;;;;;;0.16;72.15;101151.41;30739556;28;97360;-69
2022/12/02 08:53:39;;;;;;;15.50;9.93;;;;;;;0.13;71.98;101146.34;30616363;28;96840;-68
2022/12/02 09:08:40;;;;;;;18.63;9.15;;;;;;;0.11;72.02;101145.56;30858856;28;97166;-67
2022/12/02 09:23:40;;;;;;;18.88;10.05;;;;;;;0.08;71.80;101150.97;30857221;28;97354;-69
2022/12/02 09:38:40;;;;;;;17.38;10.23;;;;;;;0.13;71.68;101151.59;30857893;28;97305;-67
2022/12/02 09:53:41;;;;;;;15.55;8.32;;;;;;;0.06;71.11;101155.47;30857516;28;97119;-68
2022/12/02 10:08:42;;;;;;;18.25;8.32;;;;;;;0.05;71.20;101149.34;30831228;28;97337;-69
2022/12/02 10:23:53;;;;;;;19.38;8.38;;;;;;;-0.03;70.40;101139.28;30784168;28;96682;-73
2022/12/02 10:38:53;;;;;;;14.10;7.90;;;;;;;-0.14;70.21;101138.13;30773329;28;99521;-70
2022/12/02 10:53:57;;;;;;;14.02;8.48;;;;;;;-0.29;70.56;101126.66;30778797;28;97914;-68
2022/12/02 11:08:59;;;;;;;17.80;8.63;;;;;;;-0.32;70.85;101116.34;30785152;28;96787;-68
2022/12/02 11:24:30;;;;;;;27.85;10.82;;;;;;;-0.14;70.83;101114.56;30781596;28;96729;-73
2022/12/02 11:39:40;;;;;;;14.40;8.50;;;;;;;-0.09;70.60;101110.78;30786523;28;96828;-69
2022/12/02 11:54:45;;;;;;;19.38;9.52;;;;;;;-0.04;70.73;101113.13;30744260;28;97765;-69
2022/12/02 12:09:56;;;;;;;18.27;10.43;;;;;;;-0.14;70.62;101107.53;30761112;28;96985;-71
2022/12/02 12:25:38;;;;;;;18.42;10.15;;;;;;;-0.20;70.54;101094.75;30796523;28;97490;-68
2022/12/02 12:40:38;;;;;;;20.35;11.45;;;;;;;-0.36;71.07;101092.91;30774834;28;97635;-69
2022/12/02 12:55:39;;;;;;;19.58;10.40;;;;;;;-0.32;71.24;101084.91;30808009;28;96727;-70
2022/12/02 13:10:39;;;;;;;21.13;10.55;;;;;;;-0.44;70.77;101092.44;30775289;28;96962;-67
2022/12/02 13:25:40;;;;;;;20.98;9.23;;;;;;;-0.49;70.57;101097.09;30786030;28;97628;-71
2022/12/02 13:40:40;;;;;;;17.55;8.55;;;;;;;-0.65;70.64;101102.22;30787653;28;97045;-67
2022/12/02 13:55:40;;;;;;;20.70;10.30;;;;;;;-0.78;71.13;101101.13;30785758;28;97113;-71
2022/12/02 14:10:41;;;;;;;20.63;10.95;;;;;;;-0.81;71.18;101107.34;30661068;28;97519;-70
2022/12/02 14:25:41;;;;;;;15.90;7.93;;;;;;;-0.82;71.17;101110.03;30641068;28;96802;-68
2022/12/02 14:40:42;;;;;;;18.70;10.25;;;;;;;-0.90;71.47;101113.88;30728921;28;97499;-68
2022/12/02 14:55:42;;;;;;;18.30;11.88;;;;;;;-0.83;71.55;101113.56;30720321;28;96995;-67
2022/12/02 15:10:42;;;;;;;20.08;11.45;;;;;;;-0.77;71.74;101119.38;30728953;28;98080;-68
2022/12/02 15:25:43;;;;;;;17.80;9.80;;;;;;;-0.72;71.78;101112.16;30727443;28;96778;-68
2022/12/02 15:40:43;;;;;;;15.27;9.23;;;;;;;-0.72;71.55;101113.94;30728636;28;97275;-67
2022/12/02 15:55:44;;;;;;;17.33;9.07;;;;;;;-0.72;71.51;101121.78;30725737;28;96732;-68
2022/12/02 16:10:44;;;;;;;17.90;8.77;;;;;;;-0.68;71.34;101131.16;30725429;28;97454;-67
2022/12/02 16:25:45;;;;;;;15.50;9.60;;;;;;;-0.68;71.39;101118.91;30724685;28;96621;-68
2022/12/02 16:40:45;;;;;;;21.30;12.23;;;;;;;-0.66;71.42;101125.84;30743955;28;96790;-68
2022/12/02 16:55:46;;;;;;;16.40;9.10;;;;;;;-0.64;71.50;101130.09;30742956;28;96783;-68
2022/12/02 17:10:46;;;;;;;17.02;8.27;;;;;;;-0.78;70.85;101141.25;30739358;28;98254;-68
2022/12/02 17:25:46;;;;;;;20.02;9.23;;;;;;;-0.87;71.41;101149.53;30737202;28;96700;-67
2022/12/02 17:40:47;;;;;;;22.33;10.02;;;;;;;-0.92;71.25;101147.09;30736474;28;96652;-68
2022/12/02 17:55:47;;;;;;;18.00;9.10;;;;;;;-0.94;71.41;101158.59;30734205;28;96670;-68
2022/12/02 18:10:48;;;;;;;16.58;10.60;;;;;;;-0.98;71.50;101151.81;30735104;28;97350;-75
2022/12/02 18:25:49;;;;;;;15.57;9.43;;;;;;;-1.00;71.47;101158.88;30734742;28;96728;-67
2022/12/02 18:40:49;;;;;;;19.33;8.82;;;;;;;-1.08;71.38;101165.31;30731719;28;97587;-67
2022/12/02 18:55:50;;;;;;;23.95;9.70;;;;;;;-1.14;71.73;101152.50;30732808;28;97242;-73
2022/12/02 19:10:50;;;;;;;21.88;11.13;;;;;;;-1.12;72.33;101157.66;30729055;28;96738;-73
2022/12/02 19:25:50;;;;;;;20.10;10.75;;;;;;;-1.10;71.75;101154.06;30728741;28;96955;-68
2022/12/02 19:40:51;;;;;;;17.95;10.57;;;;;;;-1.09;71.96;101158.38;30727759;28;96686;-67
2022/12/02 19:55:51;;;;;;;20.88;10.80;;;;;;;-1.12;71.79;101160.28;30728216;28;96680;-67
2022/12/02 20:10:52;;;;;;;17.25;10.82;;;;;;;-1.14;72.18;101162.13;30742550;28;96756;-68
2022/12/02 20:25:52;;;;;;;18.98;11.60;;;;;;;-1.09;72.13;101147.91;30748011;28;96731;-68
2022/12/02 20:40:53;;;;;;;16.35;10.30;;;;;;;-1.03;72.25;101154.63;30745638;28;96668;-68
2022/12/02 20:55:54;;;;;;;19.30;10.85;;;;;;;-1.05;72.24;101141.63;30744798;28;97488;-68
2022/12/02 21:10:55;;;;;;;22.42;11.00;;;;;;;-1.07;72.65;101132.97;30743250;28;96595;-67
2022/12/02 21:25:57;;;;;;;18.58;10.88;;;;;;;-1.06;72.39;101132.06;30740781;28;96828;-67
2022/12/02 21:40:57;;;;;;;23.52;12.10;;;;;;;-1.10;72.68;101135.75;30741292;28;96630;-67
2022/12/02 21:55:57;;;;;;;21.08;10.90;;;;;;;-1.09;72.52;101145.28;30739644;28;96593;-67
2022/12/02 22:10:58;;;;;;;25.55;11.13;;;;;;;-1.09;72.27;101129.59;30737725;28;96608;-67
2022/12/02 22:25:58;;;;;;;22.67;12.05;;;;;;;-1.07;72.23;101127.75;30734856;28;96723;-67
2022/12/02 22:40:59;;;;;;;19.35;12.43;;;;;;;-1.06;72.36;101134.69;30735759;28;96911;-69
2022/12/02 22:55:59;;;;;;;31.17;15.18;;;;;;;-1.06;72.60;101128.63;30735038;28;96690;-67
2022/12/02 23:11:00;;;;;;;29.02;13.65;;;;;;;-1.03;72.66;101128.47;30732693;28;96659;-68
2022/12/02 23:26:00;;;;;;;31.70;15.63;;;;;;;-1.05;72.93;101125.94;30732471;28;96921;-67
2022/12/02 23:41:01;;;;;;;28.48;14.25;;;;;;;-1.06;73.09;101126.00;30741861;28;96775;-67
2022/12/02 23:56:01;;;;;;;29.73;14.32;;;;;;;-1.07;73.44;101122.53;30752293;28;96633;-67
